createdAt,value
2022-09-04T00:01:20.670Z,16.47
2022-09-04T00:03:57.632Z,16.50
2022-09-04T00:06:30.569Z,16.56
2022-09-04T00:09:13.751Z,16.61
2022-09-04T00:11:52.622Z,16.67
2022-09-04T00:14:27.083Z,16.69
2022-09-04T00:17:03.974Z,16.71
2022-09-04T00:19:41.550Z,16.73
2022-09-04T00:22:26.538Z,16.74
2022-09-04T00:25:04.546Z,16.75
2022-09-04T00:27:44.745Z,16.77
2022-09-04T00:30:19.821Z,16.77
2022-09-04T00:33:00.479Z,16.77
2022-09-04T00:35:36.919Z,16.77
2022-09-04T00:38:14.580Z,16.79
2022-09-04T00:40:54.018Z,16.79
2022-09-04T00:44:00.107Z,16.80
2022-09-04T00:46:48.927Z,16.83
2022-09-04T00:49:36.603Z,16.84
2022-09-04T00:52:18.791Z,16.86
2022-09-04T00:54:59.293Z,16.87
2022-09-04T00:57:50.860Z,16.87
2022-09-04T01:00:25.602Z,16.87
2022-09-04T01:03:21.815Z,16.87
2022-09-04T01:06:20.210Z,16.85
2022-09-04T01:09:11.450Z,16.81
2022-09-04T01:11:51.667Z,16.80
2022-09-04T01:14:29.588Z,16.80
2022-09-04T01:17:13.907Z,16.80
2022-09-04T01:19:49.802Z,16.81
2022-09-04T01:22:36.597Z,16.80
2022-09-04T01:25:17.241Z,16.77
2022-09-04T01:27:57.656Z,16.79
2022-09-04T01:30:32.514Z,16.85
2022-09-04T01:33:09.332Z,16.90
2022-09-04T01:35:46.387Z,16.90
2022-09-04T01:38:23.877Z,16.90
2022-09-04T01:41:01.199Z,16.91
2022-09-04T01:43:32.913Z,16.91
2022-09-04T01:46:17.410Z,16.90
2022-09-04T01:48:53.956Z,16.90
2022-09-04T01:51:34.214Z,16.88
2022-09-04T01:54:21.963Z,16.85
2022-09-04T01:57:05.819Z,16.81
2022-09-04T01:59:44.287Z,16.74
2022-09-04T02:02:21.774Z,16.70
2022-09-04T02:05:03.976Z,16.70
2022-09-04T02:07:46.838Z,16.69
2022-09-04T02:10:30.235Z,16.69
2022-09-04T02:13:16.329Z,16.70
2022-09-04T02:15:58.945Z,16.71
2022-09-04T02:18:43.490Z,16.76
2022-09-04T02:21:24.097Z,16.77
2022-09-04T02:24:07.012Z,16.75
2022-09-04T02:26:43.968Z,16.70
2022-09-04T02:29:23.046Z,16.67
2022-09-04T02:32:00.877Z,16.67
2022-09-04T02:34:42.021Z,16.71
2022-09-04T02:37:21.656Z,16.74
2022-09-04T02:40:04.618Z,16.75
2022-09-04T02:42:46.532Z,16.76
2022-09-04T02:45:24.741Z,16.76
2022-09-04T02:48:04.107Z,16.72
2022-09-04T02:50:49.904Z,16.66
2022-09-04T02:53:30.832Z,16.59
2022-09-04T02:56:13.988Z,16.51
2022-09-04T02:58:57.713Z,16.40
2022-09-04T03:01:36.670Z,16.34
2022-09-04T03:04:16.724Z,16.33
2022-09-04T03:06:55.418Z,16.45
2022-09-04T03:09:34.011Z,16.52
2022-09-04T03:12:26.596Z,16.56
2022-09-04T03:15:05.978Z,16.61
2022-09-04T03:17:47.212Z,16.65
2022-09-04T03:20:22.608Z,16.67
2022-09-04T03:23:00.428Z,16.68
2022-09-04T03:26:06.279Z,16.64
2022-09-04T03:28:47.376Z,16.61
2022-09-04T03:31:34.240Z,16.58
2022-09-04T03:34:26.710Z,16.57
2022-09-04T03:37:10.345Z,16.54
2022-09-04T03:39:51.230Z,16.52
2022-09-04T03:42:32.085Z,16.49
2022-09-04T03:45:17.158Z,16.48
2022-09-04T03:47:56.905Z,16.48
2022-09-04T03:50:34.800Z,16.45
2022-09-04T03:53:16.427Z,16.44
2022-09-04T03:56:20.671Z,16.41
2022-09-04T03:59:02.286Z,16.37
2022-09-04T04:01:43.131Z,16.33
2022-09-04T04:04:44.101Z,16.33
2022-09-04T04:07:27.445Z,16.37
2022-09-04T04:10:07.119Z,16.41
2022-09-04T04:12:53.596Z,16.41
2022-09-04T04:15:33.733Z,16.42
2022-09-04T04:18:23.049Z,16.41
2022-09-04T04:21:02.541Z,16.43
2022-09-04T04:24:12.547Z,16.46
2022-09-04T04:26:54.925Z,16.46
2022-09-04T04:30:06.289Z,16.47
2022-09-04T04:32:50.928Z,16.49
2022-09-04T04:35:30.889Z,16.49
2022-09-04T04:38:18.329Z,16.50
2022-09-04T04:41:04.616Z,16.50
2022-09-04T04:43:48.028Z,16.46
2022-09-04T04:46:26.691Z,16.50
2022-09-04T04:49:20.899Z,16.52
2022-09-04T04:52:06.091Z,16.53
2022-09-04T04:54:52.561Z,16.54
2022-09-04T04:57:33.542Z,16.56
2022-09-04T05:00:12.350Z,16.56
2022-09-04T05:02:51.960Z,16.54
2022-09-04T05:05:58.751Z,16.54
2022-09-04T05:08:38.677Z,16.55
2022-09-04T05:11:19.777Z,16.58
2022-09-04T05:13:58.883Z,16.62
2022-09-04T05:16:51.035Z,16.68
2022-09-04T05:19:32.500Z,16.75
2022-09-04T05:22:12.182Z,16.81
2022-09-04T05:24:54.165Z,16.86
2022-09-04T05:27:43.016Z,16.93
2022-09-04T05:30:19.618Z,17.09
2022-09-04T05:32:59.957Z,17.28
2022-09-04T05:35:39.398Z,17.50
2022-09-04T05:38:16.901Z,17.69
2022-09-04T05:41:06.114Z,17.87
2022-09-04T05:43:58.915Z,18.10
2022-09-04T05:46:46.723Z,18.30
2022-09-04T05:49:38.049Z,18.53
2022-09-04T05:52:29.354Z,18.79
2022-09-04T05:55:33.006Z,19.00
2022-09-04T05:58:18.756Z,19.17
2022-09-04T06:01:02.036Z,19.38
2022-09-04T06:03:54.795Z,19.61
2022-09-04T06:06:37.669Z,19.76
2022-09-04T06:09:27.756Z,19.99
2022-09-04T06:12:28.672Z,20.18
2022-09-04T06:15:23.737Z,20.33
2022-09-04T06:18:11.929Z,20.49
2022-09-04T06:21:02.003Z,20.65
2022-09-04T06:23:42.820Z,20.85
2022-09-04T06:26:40.980Z,20.95
2022-09-04T06:29:36.904Z,21.11
2022-09-04T06:32:45.867Z,21.26
2022-09-04T06:35:33.383Z,21.41
2022-09-04T06:38:18.059Z,21.57
2022-09-04T06:41:02.306Z,21.77
2022-09-04T06:43:42.455Z,21.90
2022-09-04T06:46:22.523Z,22.04
2022-09-04T06:49:05.788Z,22.17
2022-09-04T06:51:59.358Z,22.33
2022-09-04T06:54:42.679Z,22.52
2022-09-04T06:57:29.117Z,22.67
2022-09-04T07:00:11.919Z,22.79
2022-09-04T07:03:17.352Z,22.83
2022-09-04T07:05:59.755Z,22.82
2022-09-04T07:08:48.986Z,22.89
2022-09-04T07:11:41.440Z,22.95
2022-09-04T07:14:32.085Z,23.03
2022-09-04T07:17:11.380Z,23.21
2022-09-04T07:20:12.878Z,23.31
2022-09-04T07:23:15.956Z,23.48
2022-09-04T07:25:54.254Z,23.62
2022-09-04T07:28:43.003Z,23.75
2022-09-04T07:31:21.268Z,23.84
2022-09-04T07:34:02.861Z,23.77
2022-09-04T07:36:44.369Z,23.68
2022-09-04T07:39:23.360Z,23.77
2022-09-04T07:42:03.386Z,23.76
2022-09-04T07:44:42.418Z,23.93
2022-09-04T07:47:19.624Z,24.07
2022-09-04T07:49:59.313Z,24.30
2022-09-04T07:52:59.238Z,24.45
2022-09-04T07:55:41.384Z,24.69
2022-09-04T07:58:28.813Z,24.74
2022-09-04T08:01:19.863Z,24.76
2022-09-04T08:04:17.886Z,24.95
2022-09-04T08:06:56.375Z,25.10
2022-09-04T08:09:45.366Z,25.12
2022-09-04T08:12:42.919Z,25.14
2022-09-04T08:15:21.915Z,25.13
2022-09-04T08:18:09.165Z,25.11
2022-09-04T08:20:56.955Z,25.12
2022-09-04T08:23:53.402Z,25.25
2022-09-04T08:26:34.122Z,25.50
2022-09-04T08:29:23.893Z,25.72
2022-09-04T08:32:04.454Z,25.70
2022-09-04T08:34:57.484Z,25.63
2022-09-04T08:37:34.635Z,25.50
2022-09-04T08:40:32.666Z,25.37
2022-09-04T08:43:24.815Z,25.37
2022-09-04T08:46:34.805Z,25.31
2022-09-04T08:49:39.693Z,25.27
2022-09-04T08:52:44.288Z,25.31
2022-09-04T08:55:46.929Z,25.25
2022-09-04T08:58:56.696Z,25.32
2022-09-04T09:02:04.360Z,25.41
2022-09-04T09:04:56.266Z,25.53
2022-09-04T09:07:54.951Z,25.67
2022-09-04T09:11:02.243Z,25.76
2022-09-04T09:14:02.257Z,25.86
2022-09-04T09:16:43.950Z,26.00
2022-09-04T09:19:38.494Z,26.06
2022-09-04T09:22:21.076Z,26.15
2022-09-04T09:25:16.123Z,26.21
2022-09-04T09:28:20.585Z,26.12
2022-09-04T09:31:25.024Z,26.17
2022-09-04T09:34:38.484Z,26.27
2022-09-04T09:37:40.087Z,26.34
2022-09-04T09:40:41.242Z,26.35
2022-09-04T09:43:33.847Z,26.37
2022-09-04T09:46:28.220Z,26.42
2022-09-04T09:49:36.586Z,26.43
2022-09-04T09:52:41.400Z,26.46
2022-09-04T09:55:54.203Z,26.56
2022-09-04T09:58:53.807Z,26.66
2022-09-04T10:01:49.979Z,26.61
2022-09-04T10:04:51.267Z,26.63
2022-09-04T10:07:40.844Z,26.61
2022-09-04T10:10:28.405Z,26.60
2022-09-04T10:13:28.130Z,26.58
2022-09-04T10:16:29.328Z,26.64
2022-09-04T10:19:30.361Z,26.68
2022-09-04T10:22:26.763Z,26.71
2022-09-04T10:25:21.477Z,26.74
2022-09-04T10:28:16.867Z,26.73
2022-09-04T10:31:11.428Z,26.61
2022-09-04T10:33:52.419Z,26.59
2022-09-04T10:36:34.457Z,26.59
2022-09-04T10:39:35.725Z,26.60
2022-09-04T10:42:15.440Z,26.61
2022-09-04T10:45:08.815Z,26.60
2022-09-04T10:48:05.314Z,26.60
2022-09-04T10:51:08.358Z,26.60
2022-09-04T10:53:57.183Z,26.59
2022-09-04T10:56:35.309Z,26.63
2022-09-04T10:59:59.102Z,26.67
2022-09-04T11:02:57.163Z,26.70
2022-09-04T11:05:39.542Z,26.68
2022-09-04T11:08:47.233Z,26.72
2022-09-04T11:11:20.554Z,26.77
2022-09-04T11:14:37.967Z,26.75
2022-09-04T11:17:43.586Z,26.48
2022-09-04T11:20:45.107Z,26.21
2022-09-04T11:24:08.116Z,26.02
2022-09-04T11:27:07.959Z,25.86
2022-09-04T11:29:55.943Z,25.76
2022-09-04T11:33:02.252Z,25.63
2022-09-04T11:36:10.649Z,25.48
2022-09-04T11:39:11.900Z,25.34
2022-09-04T11:42:11.159Z,25.26
2022-09-04T11:45:00.636Z,25.27
2022-09-04T11:47:50.626Z,25.30
2022-09-04T11:50:51.364Z,25.26
2022-09-04T11:53:46.923Z,25.28
2022-09-04T11:56:32.955Z,25.29
2022-09-04T11:59:36.779Z,25.32
2022-09-04T12:02:36.474Z,25.31
2022-09-04T12:05:17.888Z,25.27
2022-09-04T12:08:05.068Z,25.22
2022-09-04T12:10:52.868Z,25.19
2022-09-04T12:13:44.941Z,25.11
2022-09-04T12:16:48.963Z,25.05
2022-09-04T12:19:52.241Z,25.11
2022-09-04T12:23:05.133Z,25.15
2022-09-04T12:26:11.731Z,25.17
2022-09-04T12:29:18.364Z,25.23
2022-09-04T12:32:16.984Z,25.28
2022-09-04T12:35:17.012Z,25.28
2022-09-04T12:38:20.180Z,25.24
2022-09-04T12:41:01.531Z,25.13
2022-09-04T12:43:48.819Z,25.12
2022-09-04T12:46:35.283Z,25.18
2022-09-04T12:49:31.349Z,25.25
2022-09-04T12:52:19.235Z,25.28
2022-09-04T12:55:01.473Z,25.36
2022-09-04T12:57:45.569Z,25.36
2022-09-04T13:00:18.218Z,25.34
2022-09-04T13:03:04.290Z,25.28
2022-09-04T13:05:53.349Z,25.32
2022-09-04T13:08:37.628Z,25.30
2022-09-04T13:11:25.141Z,25.33
2022-09-04T13:14:07.247Z,25.35
2022-09-04T13:16:46.681Z,25.34
2022-09-04T13:19:28.421Z,25.30
2022-09-04T13:22:15.417Z,25.36
2022-09-04T13:25:00.521Z,25.36
2022-09-04T13:27:43.478Z,25.36
2022-09-04T13:30:21.842Z,25.33
2022-09-04T13:33:17.167Z,25.35
2022-09-04T13:36:11.134Z,25.36
2022-09-04T13:39:20.466Z,25.36
2022-09-04T13:42:16.331Z,25.30
2022-09-04T13:44:55.631Z,25.25
2022-09-04T13:47:32.414Z,25.20
2022-09-04T13:50:14.170Z,25.18
2022-09-04T13:52:52.256Z,25.11
2022-09-04T13:55:27.600Z,25.07
2022-09-04T13:58:05.957Z,25.08
2022-09-04T14:00:46.082Z,25.07
2022-09-04T14:03:27.362Z,25.05
2022-09-04T14:05:58.885Z,25.04
2022-09-04T14:08:31.435Z,25.05
2022-09-04T14:11:36.222Z,25.06
2022-09-04T14:14:50.055Z,25.07
2022-09-04T14:17:27.013Z,25.06
2022-09-04T14:20:04.760Z,25.02
2022-09-04T14:22:48.705Z,24.99
2022-09-04T14:25:34.698Z,24.94
2022-09-04T14:28:20.449Z,24.89
2022-09-04T14:31:10.816Z,24.84
2022-09-04T14:33:51.300Z,24.83
2022-09-04T14:36:35.572Z,24.80
2022-09-04T14:39:25.078Z,24.81
2022-09-04T14:42:29.685Z,24.81
2022-09-04T14:45:14.218Z,24.79
2022-09-04T14:47:54.945Z,24.79
2022-09-04T14:50:30.387Z,24.75
2022-09-04T14:53:06.021Z,24.71
2022-09-04T14:55:41.008Z,24.69
2022-09-04T14:58:21.047Z,24.67
2022-09-04T15:01:06.965Z,24.67
2022-09-04T15:03:46.008Z,24.66
2022-09-04T15:06:25.248Z,24.64
2022-09-04T15:08:58.709Z,24.61
2022-09-04T15:11:33.804Z,24.61
2022-09-04T15:14:09.557Z,24.59
2022-09-04T15:16:54.479Z,24.57
2022-09-04T15:19:41.325Z,24.56
2022-09-04T15:22:19.297Z,24.53
2022-09-04T15:25:00.622Z,24.49
2022-09-04T15:27:40.819Z,24.48
2022-09-04T15:30:21.607Z,24.46
2022-09-04T15:33:06.104Z,24.41
2022-09-04T15:35:38.170Z,24.36
2022-09-04T15:38:21.852Z,24.33
2022-09-04T15:41:16.131Z,24.29
2022-09-04T15:43:52.186Z,24.24
2022-09-04T15:46:30.877Z,24.21
2022-09-04T15:49:16.975Z,24.16
2022-09-04T15:51:55.012Z,24.13
2022-09-04T15:54:32.609Z,24.13
2022-09-04T15:57:13.873Z,24.12
2022-09-04T15:59:53.561Z,24.10
2022-09-04T16:02:38.631Z,24.08
2022-09-04T16:05:23.069Z,24.05
2022-09-04T16:08:03.906Z,24.00
2022-09-04T16:10:53.389Z,23.97
2022-09-04T16:13:41.669Z,23.94
2022-09-04T16:16:18.793Z,23.89
2022-09-04T16:19:08.762Z,23.86
2022-09-04T16:21:53.038Z,23.81
2022-09-04T16:24:29.783Z,23.78
2022-09-04T16:27:06.351Z,23.74
2022-09-04T16:29:42.129Z,23.70
2022-09-04T16:32:20.582Z,23.67
2022-09-04T16:34:56.274Z,23.65
2022-09-04T16:37:32.528Z,23.62
2022-09-04T16:40:16.405Z,23.61
2022-09-04T16:42:52.367Z,23.58
2022-09-04T16:45:26.471Z,23.53
2022-09-04T16:48:12.688Z,23.54
2022-09-04T16:51:09.859Z,23.52
2022-09-04T16:53:59.049Z,23.51
2022-09-04T16:56:37.297Z,23.48
2022-09-04T16:59:25.668Z,23.45
2022-09-04T17:02:04.039Z,23.41
2022-09-04T17:04:42.698Z,23.38
2022-09-04T17:07:19.435Z,23.34
2022-09-04T17:10:03.074Z,23.16
2022-09-04T17:12:48.619Z,23.27
2022-09-04T17:15:35.811Z,23.21
2022-09-04T17:18:10.902Z,23.16
2022-09-04T17:24:08.003Z,23.12
2022-09-04T17:29:14.770Z,23.06
2022-09-04T17:29:16.026Z,23.02
2022-09-04T17:29:44.530Z,22.97
2022-09-04T17:33:40.938Z,22.94
2022-09-04T17:40:36.360Z,22.90
2022-09-04T17:40:56.304Z,22.85
2022-09-04T17:41:31.169Z,22.80
2022-09-04T17:44:36.790Z,22.74
2022-09-04T17:47:24.649Z,22.68
2022-09-04T17:49:57.037Z,22.62
2022-09-04T17:52:31.408Z,22.56
2022-09-04T17:55:08.067Z,22.50
2022-09-04T17:57:52.832Z,22.43
2022-09-04T18:00:26.026Z,22.39
2022-09-04T18:03:00.612Z,22.35
2022-09-04T18:05:42.090Z,22.32
2022-09-04T18:08:30.239Z,22.28
2022-09-04T18:11:09.092Z,22.24
2022-09-04T18:13:45.570Z,22.19
2022-09-04T18:16:47.604Z,22.15
2022-09-04T18:19:42.285Z,22.11
2022-09-04T18:22:32.067Z,22.08
2022-09-04T18:25:17.210Z,22.04
2022-09-04T18:28:11.415Z,22.00
2022-09-04T18:37:09.935Z,21.96
2022-09-04T18:37:16.622Z,21.83
2022-09-04T18:37:26.027Z,21.90
2022-09-04T18:39:51.594Z,21.77
2022-09-04T18:50:22.259Z,21.70
2022-09-04T18:50:23.119Z,21.65
2022-09-04T18:50:32.963Z,21.56
2022-09-04T18:51:25.106Z,21.50
2022-09-04T18:54:01.643Z,21.43
2022-09-04T18:56:37.770Z,21.36
2022-09-04T18:59:19.142Z,21.29
2022-09-04T19:01:58.534Z,21.21
2022-09-04T19:04:44.586Z,21.14
2022-09-04T19:07:27.606Z,21.04
2022-09-04T19:10:23.751Z,20.97
2022-09-04T19:13:03.913Z,20.92
2022-09-04T19:15:45.862Z,20.88
2022-09-04T19:18:26.556Z,20.83
2022-09-04T19:21:14.628Z,20.80
2022-09-04T19:23:51.851Z,20.79
2022-09-04T19:26:31.443Z,20.73
2022-09-04T19:29:13.306Z,20.79
2022-09-04T19:31:51.418Z,20.79
2022-09-04T19:34:30.914Z,20.80
2022-09-04T19:37:24.668Z,20.80
2022-09-04T19:45:56.851Z,20.81
2022-09-04T19:46:00.356Z,20.81
2022-09-04T19:46:26.611Z,20.76
2022-09-04T19:49:45.154Z,20.73
2022-09-04T19:53:30.487Z,20.69
2022-09-04T19:55:25.009Z,20.66
2022-09-04T19:58:02.612Z,20.64
2022-09-04T20:00:44.068Z,20.65
2022-09-04T20:03:29.852Z,20.63
2022-09-04T20:06:20.123Z,20.61
2022-09-04T20:08:59.157Z,20.60
2022-09-04T20:11:36.556Z,20.60
2022-09-04T20:14:16.555Z,20.59
2022-09-04T20:16:59.393Z,20.59
2022-09-04T20:19:40.595Z,20.57
2022-09-04T20:22:26.276Z,20.56
2022-09-04T20:25:05.159Z,20.55
2022-09-04T20:27:42.891Z,20.54
2022-09-04T20:30:20.180Z,20.53
2022-09-04T20:32:58.543Z,20.49
2022-09-04T20:35:39.266Z,20.47
2022-09-04T20:38:23.822Z,20.46
2022-09-04T20:40:59.466Z,20.40
2022-09-04T20:43:40.886Z,20.40
2022-09-04T20:52:45.032Z,20.38
2022-09-04T20:53:05.756Z,20.36
2022-09-04T20:53:07.328Z,20.33
2022-09-04T20:55:33.110Z,20.30
2022-09-04T21:03:14.202Z,20.25
2022-09-04T21:03:18.289Z,20.17
2022-09-04T21:04:42.009Z,20.11
2022-09-04T21:07:42.021Z,20.04
2022-09-04T21:10:25.042Z,19.96
2022-09-04T21:13:14.287Z,19.88
2022-09-04T21:15:57.055Z,19.79
2022-09-04T21:19:27.309Z,19.73
2022-09-04T21:22:17.193Z,19.70
2022-09-04T21:25:18.417Z,19.62
2022-09-04T21:28:11.106Z,19.56
2022-09-04T21:30:55.753Z,19.51
2022-09-04T21:33:39.294Z,19.44
2022-09-04T21:36:26.640Z,19.34
2022-09-04T21:39:43.767Z,19.25
2022-09-04T21:42:42.912Z,19.19
2022-09-04T21:45:28.269Z,19.19
2022-09-04T21:48:31.764Z,19.21
2022-09-04T21:51:30.898Z,19.22
2022-09-04T21:56:21.438Z,19.18
2022-09-04T22:02:30.922Z,19.10
2022-09-04T22:02:38.281Z,19.04
2022-09-04T22:04:04.251Z,18.98
2022-09-04T22:07:43.210Z,18.97
2022-09-04T22:13:34.624Z,18.96
2022-09-04T22:13:40.852Z,18.96
2022-09-04T22:15:59.793Z,18.98
2022-09-04T22:18:48.773Z,18.96
2022-09-04T22:21:39.665Z,18.94
2022-09-04T22:24:54.435Z,18.95
2022-09-04T22:28:07.789Z,18.98
2022-09-04T22:30:50.344Z,18.96
2022-09-04T22:34:16.123Z,18.92
2022-09-04T22:37:00.811Z,18.93
2022-09-04T22:39:57.697Z,18.93
2022-09-04T22:42:47.116Z,18.94
2022-09-04T22:45:53.716Z,18.93
2022-09-04T22:48:40.616Z,18.89
2022-09-04T22:51:25.827Z,18.84
2022-09-04T22:54:15.519Z,18.80
2022-09-04T22:56:55.751Z,18.80
2022-09-04T22:59:50.723Z,18.77
2022-09-04T23:03:06.766Z,18.75
2022-09-04T23:07:54.829Z,18.76
2022-09-04T23:13:48.275Z,18.80
2022-09-04T23:14:02.134Z,18.79
2022-09-04T23:15:56.248Z,18.75
2022-09-04T23:20:55.728Z,18.68
2022-09-04T23:26:41.672Z,18.63
2022-09-04T23:26:43.053Z,18.60
2022-09-04T23:28:02.743Z,18.55
2022-09-04T23:31:08.758Z,18.50
2022-09-04T23:34:01.900Z,18.47
2022-09-04T23:37:08.125Z,18.39
2022-09-04T23:40:10.297Z,18.33
2022-09-04T23:43:03.014Z,18.30
2022-09-04T23:46:08.882Z,18.28
2022-09-04T23:49:05.495Z,18.27
2022-09-04T23:51:45.909Z,18.22
2022-09-04T23:54:53.431Z,18.25
2022-09-04T23:57:30.736Z,18.26
